Time;durP1;ratioP1;P1;durP2;ratioP2;P2;SDS_P1;SDS_P2;PMS_P1;PMS_P2;Temp;Humidity;BMP_temperature;BMP_pressure;BME280_temperature;BME280_humidity;BME280_pressure;Samples;Min_cycle;Max_cycle;Signal;HPM_P1;HPM_P2
2021/01/26 00:00:06;;;;;;;19.30;13.97;;;;;;;-0.29;100.00;97909.81;5116996;28;20241;-66
2021/01/26 00:02:32;;;;;;;18.10;12.63;;;;;;;-0.37;100.00;97919.59;5116888;28;20267;-66
2021/01/26 00:04:58;;;;;;;20.80;12.60;;;;;;;-0.40;100.00;97917.06;5116762;28;20263;-66
2021/01/26 00:07:25;;;;;;;19.87;14.00;;;;;;;-0.40;100.00;97910.16;5116733;28;20210;-66
2021/01/26 00:09:51;;;;;;;19.10;13.40;;;;;;;-0.44;100.00;97912.88;5116474;28;20299;-66
2021/01/26 00:12:17;;;;;;;18.73;12.93;;;;;;;-0.53;100.00;97923.53;5116487;28;20234;-66
2021/01/26 00:14:43;;;;;;;17.20;12.80;;;;;;;-0.53;100.00;97918.31;5114880;28;20300;-65
2021/01/26 00:17:09;;;;;;;17.67;12.27;;;;;;;-0.47;100.00;97923.34;5116170;28;20211;-67
2021/01/26 00:19:35;;;;;;;20.40;13.07;;;;;;;-0.48;100.00;97916.44;5116249;28;20210;-66
2021/01/26 00:22:01;;;;;;;18.03;13.03;;;;;;;-0.48;100.00;97912.13;5116369;28;20580;-66
2021/01/26 00:24:28;;;;;;;20.30;13.60;;;;;;;-0.48;100.00;97913.84;5116058;28;20262;-64
2021/01/26 00:26:53;;;;;;;22.53;14.63;;;;;;;-0.42;100.00;97921.47;5116146;28;20210;-63
2021/01/26 00:29:19;;;;;;;21.00;13.40;;;;;;;-0.35;100.00;97929.03;5115961;28;20234;-64
2021/01/26 00:31:45;;;;;;;19.47;13.33;;;;;;;-0.34;100.00;97930.72;5116000;28;20236;-64
2021/01/26 00:34:11;;;;;;;20.27;13.37;;;;;;;-0.33;100.00;97929.00;5116119;28;20256;-66
2021/01/26 00:36:37;;;;;;;21.50;13.40;;;;;;;-0.29;100.00;97930.59;5115243;28;20230;-67
2021/01/26 00:39:04;;;;;;;19.17;12.87;;;;;;;-0.26;100.00;97933.94;5116118;28;20206;-67
2021/01/26 00:41:31;;;;;;;18.33;12.77;;;;;;;-0.17;100.00;97927.63;5114437;28;20233;-67
2021/01/26 00:43:57;;;;;;;18.90;13.07;;;;;;;-0.14;100.00;97927.56;5116069;28;20218;-68
2021/01/26 00:46:23;;;;;;;18.03;12.57;;;;;;;-0.13;100.00;97924.06;5115928;28;20263;-67
2021/01/26 00:48:49;;;;;;;15.77;11.77;;;;;;;-0.19;100.00;97919.03;5115587;28;20696;-64
2021/01/26 00:51:15;;;;;;;15.63;11.67;;;;;;;-0.31;100.00;97929.78;5115722;28;20231;-69
2021/01/26 00:53:41;;;;;;;19.07;12.53;;;;;;;-0.32;100.00;97928.94;5115705;28;20202;-68
2021/01/26 00:56:07;;;;;;;17.87;11.93;;;;;;;-0.34;100.00;97935.06;5115684;28;20217;-68
2021/01/26 00:58:34;;;;;;;17.50;12.03;;;;;;;-0.41;100.00;97936.16;5115652;28;20213;-67
2021/01/26 01:01:00;;;;;;;18.07;12.57;;;;;;;-0.52;100.00;97936.47;5115675;28;20271;-67
2021/01/26 01:03:26;;;;;;;19.93;12.97;;;;;;;-0.57;100.00;97937.50;5115393;28;20246;-67
2021/01/26 01:05:52;;;;;;;16.53;11.83;;;;;;;-0.60;100.00;97934.97;5115316;28;20242;-67
2021/01/26 01:08:18;;;;;;;16.47;11.53;;;;;;;-0.66;100.00;97937.75;5114686;28;20209;-68
2021/01/26 01:10:44;;;;;;;18.77;12.93;;;;;;;-0.62;100.00;97934.19;5115264;28;20206;-68
2021/01/26 01:13:12;;;;;;;18.90;12.93;;;;;;;-0.52;100.00;97946.84;5115180;28;20294;-68
2021/01/26 01:15:39;;;;;;;19.83;13.30;;;;;;;-0.39;100.00;97947.34;5115285;28;20217;-64
2021/01/26 01:18:06;;;;;;;21.43;13.83;;;;;;;-0.27;100.00;97947.81;5117017;28;20213;-63
2021/01/26 01:20:32;;;;;;;19.37;12.93;;;;;;;-0.17;100.00;97944.06;5117367;28;20214;-64
2021/01/26 01:22:58;;;;;;;17.07;12.80;;;;;;;-0.10;100.00;97945.59;5117237;28;20214;-63
2021/01/26 01:25:24;;;;;;;17.00;11.33;;;;;;;-0.06;100.00;97953.22;5117698;28;20210;-64
2021/01/26 01:27:50;;;;;;;16.03;11.50;;;;;;;-0.01;100.00;97956.53;5116775;28;20205;-64
2021/01/26 01:30:20;;;;;;;17.63;12.20;;;;;;;-0.04;100.00;97956.63;5114914;28;20290;-64
2021/01/26 01:32:47;;;;;;;14.53;10.83;;;;;;;-0.10;100.00;97966.38;5114406;28;20275;-68
2021/01/26 01:35:14;;;;;;;15.40;11.33;;;;;;;-0.11;100.00;97965.50;5115109;28;20259;-64
2021/01/26 01:37:40;;;;;;;17.17;11.20;;;;;;;-0.13;100.00;97972.50;5115131;28;20210;-64
2021/01/26 01:40:08;;;;;;;11.30;9.10;;;;;;;-0.20;100.00;97971.88;5115068;28;20213;-64
2021/01/26 01:42:34;;;;;;;12.30;8.50;;;;;;;-0.19;100.00;97973.56;5115012;28;20222;-64
2021/01/26 01:45:00;;;;;;;11.50;8.37;;;;;;;-0.17;100.00;97969.19;5115013;28;20208;-65
2021/01/26 01:47:30;;;;;;;12.27;8.70;;;;;;;-0.16;100.00;97977.75;5113621;28;20293;-65
2021/01/26 01:50:00;;;;;;;12.37;8.53;;;;;;;-0.20;100.00;97982.28;5114649;28;20228;-68
2021/01/26 01:52:31;;;;;;;11.80;7.77;;;;;;;-0.21;100.00;97984.00;5114678;28;20230;-69
2021/01/26 01:55:02;;;;;;;10.57;7.80;;;;;;;-0.13;100.00;97990.69;5114809;28;20613;-69
2021/01/26 01:57:31;;;;;;;11.57;8.37;;;;;;;-0.20;100.00;97990.91;5114575;28;20203;-68
2021/01/26 02:00:01;;;;;;;11.03;7.77;;;;;;;-0.14;100.00;97982.91;5112810;28;20234;-69
2021/01/26 02:02:28;;;;;;;11.67;7.67;;;;;;;-0.18;100.00;97983.06;5114519;28;20209;-69
2021/01/26 02:04:57;;;;;;;10.80;7.43;;;;;;;-0.18;100.00;97998.66;5114479;28;20206;-68
2021/01/26 02:07:24;;;;;;;10.77;7.77;;;;;;;-0.16;100.00;97993.34;5114192;28;20745;-69
2021/01/26 02:09:50;;;;;;;13.77;8.33;;;;;;;-0.22;100.00;97997.03;5114097;28;20219;-68
2021/01/26 02:12:16;;;;;;;12.13;7.50;;;;;;;-0.22;100.00;97998.72;5114068;28;20346;-67
2021/01/26 02:14:51;;;;;;;13.17;8.30;;;;;;;-0.18;100.00;97998.66;5114352;28;20210;-65
2021/01/26 02:17:32;;;;;;;11.60;8.17;;;;;;;-0.18;100.00;98009.03;5114278;28;20210;-67
2021/01/26 02:20:37;;;;;;;13.10;8.57;;;;;;;-0.22;100.00;98003.91;5113918;28;20206;-67
2021/01/26 02:23:42;;;;;;;12.13;7.87;;;;;;;-0.20;100.00;98005.63;5087947;28;20255;-66
2021/01/26 02:26:52;;;;;;;12.23;8.20;;;;;;;-0.22;100.00;98007.41;5112654;28;20206;-65
2021/01/26 02:29:23;;;;;;;13.23;8.57;;;;;;;-0.28;100.00;98008.44;5113757;28;20679;-65
2021/01/26 02:32:12;;;;;;;11.63;7.57;;;;;;;-0.25;100.00;98015.31;5113938;28;20237;-66
2021/01/26 02:35:05;;;;;;;13.97;8.80;;;;;;;-0.22;100.00;98019.50;5113918;28;20206;-65
2021/01/26 02:37:53;;;;;;;12.97;7.80;;;;;;;-0.08;100.00;98007.88;5113897;28;20207;-64
2021/01/26 02:40:24;;;;;;;14.83;8.73;;;;;;;-0.06;100.00;98005.19;5113770;28;20597;-65
2021/01/26 02:42:58;;;;;;;12.77;9.20;;;;;;;-0.03;100.00;98010.31;5113820;28;20261;-66
2021/01/26 02:45:31;;;;;;;12.00;7.90;;;;;;;0.07;100.00;98009.09;5113397;28;20686;-66
2021/01/26 02:48:17;;;;;;;14.07;8.30;;;;;;;0.08;100.00;98013.41;5113685;28;20206;-68
2021/01/26 02:50:51;;;;;;;13.03;9.03;;;;;;;0.10;100.00;98009.03;5111675;28;20236;-68
2021/01/26 02:53:24;;;;;;;16.60;10.03;;;;;;;0.07;100.00;98010.88;5113626;28;20226;-68
2021/01/26 02:55:57;;;;;;;11.53;8.43;;;;;;;0.02;100.00;98003.19;5113354;28;20792;-68
2021/01/26 02:58:29;;;;;;;14.23;9.50;;;;;;;0.04;100.00;98013.56;5113198;28;20206;-68
2021/01/26 03:00:58;;;;;;;13.47;8.50;;;;;;;0.04;100.00;98011.81;5113526;28;20213;-68
2021/01/26 03:03:31;;;;;;;12.63;7.97;;;;;;;0.00;100.00;98012.78;5113698;28;20210;-68
2021/01/26 03:06:01;;;;;;;11.63;7.83;;;;;;;0.00;100.00;98015.38;5113525;28;20696;-69
2021/01/26 03:08:33;;;;;;;12.00;8.00;;;;;;;-0.04;100.00;98012.94;5114001;28;20217;-69
2021/01/26 03:11:07;;;;;;;12.03;7.57;;;;;;;-0.12;100.00;98005.34;5113494;28;20213;-68
2021/01/26 03:13:37;;;;;;;11.37;7.60;;;;;;;-0.14;100.00;98001.09;5113147;28;20671;-68
2021/01/26 03:16:09;;;;;;;13.17;8.50;;;;;;;-0.26;100.00;98003.22;5111723;28;20202;-68
2021/01/26 03:18:41;;;;;;;12.97;7.53;;;;;;;-0.37;100.00;98015.66;5113171;28;20205;-67
2021/01/26 03:21:11;;;;;;;11.40;7.83;;;;;;;-0.44;100.00;98017.56;5113396;28;20210;-67
2021/01/26 03:23:40;;;;;;;13.40;7.80;;;;;;;-0.49;100.00;98018.59;5113059;28;20210;-66
2021/01/26 03:26:12;;;;;;;11.47;7.53;;;;;;;-0.58;100.00;98014.50;5113354;28;20207;-66
2021/01/26 03:28:39;;;;;;;11.50;7.80;;;;;;;-0.63;100.00;98010.34;5113265;28;20240;-65
2021/01/26 03:31:09;;;;;;;13.00;7.97;;;;;;;-0.60;100.00;98018.03;5113035;28;20217;-66
2021/01/26 03:33:39;;;;;;;11.37;7.90;;;;;;;-0.57;100.00;98012.75;5113215;28;20203;-66
2021/01/26 03:36:05;;;;;;;12.23;7.77;;;;;;;-0.52;100.00;98009.13;5114250;28;20202;-68
2021/01/26 03:38:33;;;;;;;10.63;7.40;;;;;;;-0.43;100.00;98018.41;5113560;28;20210;-67
2021/01/26 03:41:02;;;;;;;11.37;7.40;;;;;;;-0.35;100.00;98013.84;5112935;28;20214;-68
2021/01/26 03:43:28;;;;;;;11.33;7.23;;;;;;;-0.39;100.00;98009.66;5111561;28;20211;-68
2021/01/26 03:46:01;;;;;;;10.43;7.60;;;;;;;-0.28;100.00;97998.91;5112927;28;20604;-68
2021/01/26 03:48:41;;;;;;;10.00;7.03;;;;;;;-0.14;100.00;98002.88;5113163;28;20232;-67
2021/01/26 03:51:11;;;;;;;10.53;7.07;;;;;;;-0.07;100.00;98006.06;5113026;28;20251;-66
2021/01/26 03:54:06;;;;;;;12.30;7.87;;;;;;;-0.03;100.00;97999.91;5113208;28;20206;-67
2021/01/26 03:56:52;;;;;;;12.20;7.27;;;;;;;0.01;100.00;97998.91;5112732;28;20266;-67
2021/01/26 03:59:30;;;;;;;10.07;6.80;;;;;;;0.10;100.00;97995.19;5113004;28;20273;-68
2021/01/26 04:02:06;;;;;;;7.13;6.30;;;;;;;0.14;100.00;97991.59;5112821;28;20698;-68
2021/01/26 04:04:38;;;;;;;9.23;6.53;;;;;;;0.18;100.00;97986.25;5112829;28;20217;-67
2021/01/26 04:07:09;;;;;;;7.87;5.93;;;;;;;0.15;100.00;97986.38;5113103;28;20222;-67
2021/01/26 04:09:43;;;;;;;10.77;6.67;;;;;;;0.09;100.00;97986.56;5111142;28;20207;-67
2021/01/26 04:12:13;;;;;;;10.03;5.83;;;;;;;0.17;100.00;97992.34;5115621;28;20233;-67
2021/01/26 04:14:47;;;;;;;10.00;6.27;;;;;;;0.16;100.00;97995.00;5116716;28;20206;-64
2021/01/26 04:17:18;;;;;;;10.50;6.13;;;;;;;0.03;100.00;97984.13;5116760;28;20228;-66
2021/01/26 04:19:58;;;;;;;7.60;5.53;;;;;;;0.12;100.00;97986.44;5116686;28;20210;-65
2021/01/26 04:22:25;;;;;;;10.43;5.70;;;;;;;0.11;100.00;97986.47;5116660;28;20597;-65
2021/01/26 04:24:51;;;;;;;7.97;4.97;;;;;;;0.16;100.00;97984.59;5116156;28;20674;-65
2021/01/26 04:27:21;;;;;;;11.93;6.67;;;;;;;0.20;100.00;97976.66;5116422;28;20295;-65
2021/01/26 04:29:49;;;;;;;12.67;5.37;;;;;;;0.17;100.00;97984.56;5116157;28;20221;-65
2021/01/26 04:32:15;;;;;;;7.83;5.50;;;;;;;0.24;100.00;97986.06;5116323;28;20230;-65
2021/01/26 04:34:41;;;;;;;7.63;5.33;;;;;;;0.25;100.00;97987.75;5114168;28;20204;-65
2021/01/26 04:37:07;;;;;;;8.43;4.70;;;;;;;0.33;100.00;97988.38;5116158;28;20267;-66
2021/01/26 04:39:33;;;;;;;8.60;4.97;;;;;;;0.39;100.00;97988.19;5116165;28;20315;-72
2021/01/26 04:42:07;;;;;;;6.63;4.30;;;;;;;0.37;100.00;97989.97;5115943;28;20304;-72
2021/01/26 04:45:02;;;;;;;7.80;5.53;;;;;;;0.36;100.00;97993.50;5116044;28;20216;-72
2021/01/26 04:47:33;;;;;;;8.77;4.73;;;;;;;0.42;100.00;97998.50;5106775;28;20210;-71
2021/01/26 04:50:07;;;;;;;8.80;4.83;;;;;;;0.43;100.00;97995.00;5115885;28;20575;-72
2021/01/26 04:53:03;;;;;;;8.50;5.77;;;;;;;0.40;100.00;98005.50;5115601;28;20234;-71
2021/01/26 04:55:40;;;;;;;7.97;4.57;;;;;;;0.36;100.00;98016.88;5115703;28;20517;-72
2021/01/26 04:58:32;;;;;;;7.73;4.97;;;;;;;0.38;100.00;98016.84;5115771;28;20210;-71
2021/01/26 05:01:13;;;;;;;7.60;4.67;;;;;;;0.36;100.00;98029.88;5114149;28;20206;-71
2021/01/26 05:03:54;;;;;;;8.37;4.63;;;;;;;0.38;100.00;98030.66;5115747;28;20207;-71
2021/01/26 05:06:23;;;;;;;6.60;4.10;;;;;;;0.45;100.00;98037.38;5115283;28;20250;-71
2021/01/26 05:08:52;;;;;;;7.43;4.73;;;;;;;0.54;100.00;98029.31;5115570;28;20206;-71
2021/01/26 05:11:21;;;;;;;8.17;4.43;;;;;;;0.56;100.00;98035.31;5115414;28;20212;-71
2021/01/26 05:13:49;;;;;;;6.97;4.40;;;;;;;0.55;100.00;98031.00;5115359;28;20232;-66
2021/01/26 05:16:22;;;;;;;8.67;4.53;;;;;;;0.63;100.00;98023.81;5115515;28;20206;-68
2021/01/26 05:18:53;;;;;;;7.10;3.90;;;;;;;0.61;100.00;98030.81;5115613;28;20616;-67
2021/01/26 05:21:40;;;;;;;5.83;4.17;;;;;;;0.63;100.00;98018.59;5115074;28;20212;-67
2021/01/26 05:24:21;;;;;;;5.43;3.97;;;;;;;0.66;100.00;98031.53;5115217;28;20210;-67
2021/01/26 05:26:47;;;;;;;7.90;4.30;;;;;;;0.69;100.00;98035.78;5113464;28;20210;-65
2021/01/26 05:29:14;;;;;;;6.30;4.10;;;;;;;0.75;100.00;98036.41;5114912;28;20256;-67
2021/01/26 05:31:41;;;;;;;7.80;4.33;;;;;;;0.75;100.00;98041.63;5114689;28;20226;-66
2021/01/26 05:34:11;;;;;;;4.93;3.93;;;;;;;0.74;100.00;98031.28;5114624;28;20214;-67
2021/01/26 05:36:38;;;;;;;6.23;3.90;;;;;;;0.72;100.00;98033.06;5115122;28;20265;-66
2021/01/26 05:39:10;;;;;;;6.33;2.97;;;;;;;0.71;100.00;98036.56;5114976;28;20213;-68
2021/01/26 05:41:36;;;;;;;5.10;3.43;;;;;;;0.68;100.00;98028.88;5115026;28;20211;-66
2021/01/26 05:44:03;;;;;;;4.57;3.37;;;;;;;0.58;100.00;98025.72;5114895;28;20217;-66
2021/01/26 05:46:38;;;;;;;4.30;2.70;;;;;;;0.65;100.00;98026.38;5114548;28;20683;-68
2021/01/26 05:49:05;;;;;;;5.67;2.57;;;;;;;0.69;100.00;98033.19;5114784;28;20229;-66
2021/01/26 05:51:32;;;;;;;4.17;2.13;;;;;;;0.69;100.00;98021.00;5114680;28;20612;-66
2021/01/26 05:54:00;;;;;;;3.50;2.60;;;;;;;0.67;100.00;98028.03;5112984;28;20224;-66
2021/01/26 05:56:28;;;;;;;8.37;2.33;;;;;;;0.73;100.00;98029.56;5114809;28;20209;-66
2021/01/26 05:58:54;;;;;;;7.03;2.50;;;;;;;0.74;100.00;98034.72;5114477;28;20241;-66
2021/01/26 06:01:30;;;;;;;5.07;2.60;;;;;;;0.77;99.56;98031.16;5114564;28;20226;-65
2021/01/26 06:04:10;;;;;;;3.67;2.30;;;;;;;0.70;100.00;98037.47;5114424;28;20206;-65
2021/01/26 06:06:48;;;;;;;2.40;1.90;;;;;;;0.72;100.00;98039.13;5114556;28;20218;-65
2021/01/26 06:09:27;;;;;;;5.40;2.43;;;;;;;0.73;100.00;98051.22;5114543;28;20202;-66
2021/01/26 06:12:04;;;;;;;2.80;2.27;;;;;;;0.74;100.00;98050.31;5114502;28;20233;-65
2021/01/26 06:14:30;;;;;;;2.90;2.17;;;;;;;0.74;100.00;98052.94;5114468;28;20211;-65
2021/01/26 06:17:04;;;;;;;2.77;2.23;;;;;;;0.73;100.00;98043.44;5114394;28;20250;-66
2021/01/26 06:19:31;;;;;;;1.80;1.67;;;;;;;0.78;100.00;98054.53;5112636;28;20228;-66
2021/01/26 06:21:56;;;;;;;2.77;2.00;;;;;;;0.79;100.00;98056.22;5114040;28;20684;-65
2021/01/26 06:24:25;;;;;;;3.37;1.87;;;;;;;0.84;100.00;98053.47;5114117;28;20219;-65
2021/01/26 06:27:17;;;;;;;3.17;1.87;;;;;;;0.86;100.00;98062.94;5114099;28;20210;-66
2021/01/26 06:29:53;;;;;;;4.70;2.30;;;;;;;0.85;100.00;98069.03;5114092;28;20575;-65
2021/01/26 06:32:26;;;;;;;4.10;2.30;;;;;;;0.82;100.00;98071.75;5113623;28;20238;-66
2021/01/26 06:35:03;;;;;;;3.27;2.10;;;;;;;0.81;100.00;98077.84;5113189;28;20673;-66
2021/01/26 06:37:44;;;;;;;3.83;2.13;;;;;;;0.75;100.00;98080.63;5113895;28;20218;-66
2021/01/26 06:40:28;;;;;;;6.13;2.37;;;;;;;0.78;100.00;98090.97;5113969;28;20263;-66
2021/01/26 06:43:03;;;;;;;4.43;2.40;;;;;;;0.77;100.00;98094.47;5113559;28;20210;-66
2021/01/26 06:45:36;;;;;;;4.37;2.57;;;;;;;0.82;100.00;98095.19;5112151;28;20221;-66
2021/01/26 06:48:17;;;;;;;3.33;2.53;;;;;;;0.77;100.00;98110.06;5113428;28;20667;-65
2021/01/26 06:50:57;;;;;;;4.93;2.60;;;;;;;0.77;100.00;98110.06;5113624;28;20211;-65
2021/01/26 06:53:37;;;;;;;4.83;2.43;;;;;;;0.80;100.00;98099.56;5113671;28;20234;-65
2021/01/26 06:56:15;;;;;;;3.07;2.70;;;;;;;0.77;100.00;98106.59;5113832;28;20570;-66
2021/01/26 06:58:58;;;;;;;3.23;2.10;;;;;;;0.73;100.00;98108.44;5113377;28;20270;-65
2021/01/26 07:01:51;;;;;;;3.83;2.37;;;;;;;0.77;100.00;98115.28;5113615;28;20207;-65
2021/01/26 07:04:34;;;;;;;4.17;2.50;;;;;;;0.73;100.00;98107.59;5113675;28;20217;-66
2021/01/26 07:07:39;;;;;;;3.37;2.27;;;;;;;0.70;100.00;98108.56;5113446;28;20244;-65
2021/01/26 07:10:24;;;;;;;5.07;2.57;;;;;;;0.71;100.00;98099.00;5110992;28;20212;-66
2021/01/26 07:13:06;;;;;;;6.00;2.60;;;;;;;0.74;100.00;98117.13;5113767;28;20241;-65
2021/01/26 07:15:55;;;;;;;4.47;2.40;;;;;;;0.73;100.00;98113.66;5113322;28;20203;-65
2021/01/26 07:18:40;;;;;;;3.07;2.43;;;;;;;0.73;100.00;98121.44;5113490;28;20213;-65
2021/01/26 07:21:19;;;;;;;6.00;2.60;;;;;;;0.71;100.00;98130.19;5113569;28;20234;-66
2021/01/26 07:24:10;;;;;;;4.97;2.27;;;;;;;0.71;100.00;98130.19;5113193;28;20221;-66
2021/01/26 07:26:51;;;;;;;4.93;2.40;;;;;;;0.76;100.00;98134.38;5113322;28;20222;-65
2021/01/26 07:29:58;;;;;;;3.33;2.13;;;;;;;0.77;100.00;98136.06;5113330;28;20236;-65
2021/01/26 07:32:30;;;;;;;3.53;2.50;;;;;;;0.80;100.00;98145.53;5107980;28;20237;-65
2021/01/26 07:35:15;;;;;;;5.60;2.50;;;;;;;0.81;100.00;98148.06;5113037;28;20209;-65
2021/01/26 07:37:51;;;;;;;4.57;2.50;;;;;;;0.84;100.00;98142.78;5111367;28;20214;-66
2021/01/26 07:40:27;;;;;;;2.90;2.30;;;;;;;0.86;100.00;98164.41;5113426;28;20569;-66
2021/01/26 07:43:02;;;;;;;5.23;2.67;;;;;;;0.88;100.00;98170.44;5113131;28;20207;-65
2021/01/26 07:45:33;;;;;;;4.90;2.70;;;;;;;0.85;100.00;98164.44;5113251;28;20267;-66
2021/01/26 07:48:06;;;;;;;4.33;2.73;;;;;;;0.86;100.00;98172.19;5117263;28;20264;-65
2021/01/26 07:50:36;;;;;;;4.67;3.10;;;;;;;0.86;100.00;98168.78;5116910;27;20675;-65
2021/01/26 07:53:10;;;;;;;4.07;2.83;;;;;;;0.85;100.00;98180.91;5117012;28;20278;-65
2021/01/26 07:55:41;;;;;;;5.63;3.33;;;;;;;0.86;100.00;98181.78;5116643;28;20210;-65
2021/01/26 07:58:11;;;;;;;8.50;4.47;;;;;;;0.91;100.00;98183.31;5116655;28;20209;-66
2021/01/26 08:00:40;;;;;;;5.33;3.53;;;;;;;0.89;100.00;98179.94;5117294;28;20235;-66
2021/01/26 08:03:07;;;;;;;4.87;3.30;;;;;;;0.95;100.00;98177.13;5114120;28;20205;-65
2021/01/26 08:05:45;;;;;;;7.07;3.27;;;;;;;0.95;100.00;98177.13;5116550;28;20215;-65
2021/01/26 08:08:22;;;;;;;9.80;3.93;;;;;;;0.93;100.00;98184.13;5116833;28;20206;-65
2021/01/26 08:11:05;;;;;;;7.37;3.57;;;;;;;0.93;100.00;98188.50;5116715;28;20210;-65
2021/01/26 08:13:33;;;;;;;7.53;4.07;;;;;;;0.98;100.00;98192.66;5116280;27;20275;-64
2021/01/26 08:16:13;;;;;;;10.87;4.13;;;;;;;0.99;100.00;98189.13;5116541;28;20224;-65
2021/01/26 08:18:40;;;;;;;5.13;3.70;;;;;;;1.01;100.00;98182.16;5116632;28;20218;-66
2021/01/26 08:21:31;;;;;;;5.60;3.80;;;;;;;1.07;100.00;98187.19;5116609;28;20580;-65
2021/01/26 08:24:13;;;;;;;7.03;4.10;;;;;;;1.06;100.00;98187.22;5116561;28;20214;-65
2021/01/26 08:26:40;;;;;;;7.17;4.40;;;;;;;1.06;100.00;98180.25;5116562;28;20247;-65
2021/01/26 08:29:07;;;;;;;5.73;4.23;;;;;;;1.02;100.00;98181.25;5114905;28;20210;-65
2021/01/26 08:31:35;;;;;;;7.03;4.07;;;;;;;1.07;100.00;98183.72;5116280;28;20560;-65
2021/01/26 08:34:36;;;;;;;6.47;4.00;;;;;;;1.05;100.00;98194.16;5116182;28;20242;-65
2021/01/26 08:37:24;;;;;;;5.80;4.40;;;;;;;1.04;100.00;98208.06;5116074;28;20207;-65
2021/01/26 08:39:51;;;;;;;6.53;4.53;;;;;;;1.05;100.00;98212.38;5115992;28;20257;-66
2021/01/26 08:42:50;;;;;;;7.27;4.17;;;;;;;1.04;100.00;98220.25;5115847;28;20225;-65
2021/01/26 08:45:18;;;;;;;5.77;4.20;;;;;;;1.00;100.00;98226.44;5115738;28;20217;-65
2021/01/26 08:47:48;;;;;;;6.83;4.10;;;;;;;1.05;100.00;98222.78;5116009;28;20203;-66
2021/01/26 08:50:21;;;;;;;6.83;3.70;;;;;;;1.10;100.00;98218.28;5115640;28;20268;-64
2021/01/26 08:52:48;;;;;;;6.53;4.13;;;;;;;1.07;100.00;98215.81;5115665;28;20242;-65
2021/01/26 08:55:38;;;;;;;9.07;4.27;;;;;;;1.05;100.00;98220.19;5113784;28;20217;-65
2021/01/26 08:58:04;;;;;;;5.83;4.07;;;;;;;1.05;100.00;98224.56;5094243;28;20207;-65
2021/01/26 09:00:41;;;;;;;5.03;3.77;;;;;;;1.08;100.00;98230.50;5092101;28;20251;-65
2021/01/26 09:03:29;;;;;;;7.17;3.53;;;;;;;1.06;100.00;98231.44;5092448;28;20656;-64
2021/01/26 09:05:58;;;;;;;5.97;3.90;;;;;;;1.05;100.00;98228.00;5094048;28;20222;-66
2021/01/26 09:08:47;;;;;;;7.90;3.17;;;;;;;1.09;100.00;98234.81;5093851;28;20209;-65
2021/01/26 09:11:16;;;;;;;6.73;3.33;;;;;;;1.11;98.77;98225.19;5092911;28;20305;-64
2021/01/26 09:13:44;;;;;;;3.63;2.97;;;;;;;1.12;98.16;98232.09;5112997;28;20233;-65
2021/01/26 09:16:19;;;;;;;5.33;3.47;;;;;;;1.10;99.09;98235.69;5114277;28;20212;-64
2021/01/26 09:18:51;;;;;;;4.03;2.77;;;;;;;1.21;97.22;98231.84;5113078;28;20667;-65
2021/01/26 09:21:17;;;;;;;6.33;3.30;;;;;;;1.19;98.51;98223.25;5112087;28;20202;-65
2021/01/26 09:23:44;;;;;;;3.97;3.00;;;;;;;1.31;98.26;98235.88;5113777;28;20204;-64
2021/01/26 09:26:11;;;;;;;3.60;2.70;;;;;;;1.37;95.76;98238.28;5113310;28;20210;-65
2021/01/26 09:28:41;;;;;;;2.57;2.10;;;;;;;1.44;95.63;98237.19;5113923;28;20210;-64
2021/01/26 09:31:10;;;;;;;3.33;3.03;;;;;;;1.52;93.77;98245.59;5113355;28;20216;-65
2021/01/26 09:33:38;;;;;;;5.50;2.70;;;;;;;1.54;93.47;98241.19;5112793;28;20224;-64
2021/01/26 09:36:10;;;;;;;2.60;2.30;;;;;;;1.61;92.38;98241.84;5114307;28;20217;-65
2021/01/26 09:38:41;;;;;;;3.60;2.57;;;;;;;1.57;94.15;98251.53;5114169;28;20209;-64
2021/01/26 09:41:17;;;;;;;3.07;2.20;;;;;;;1.64;93.08;98260.84;5114252;28;20236;-65
2021/01/26 09:43:44;;;;;;;6.10;2.30;;;;;;;1.67;91.59;98260.72;5114132;28;20209;-65
2021/01/26 09:46:15;;;;;;;5.73;2.40;;;;;;;1.70;94.58;98252.81;5114012;28;20210;-65
2021/01/26 09:48:44;;;;;;;6.63;2.30;;;;;;;1.75;90.95;98261.34;5112624;28;20611;-65
2021/01/26 09:51:14;;;;;;;5.47;2.60;;;;;;;1.71;91.17;98277.97;5112497;28;20211;-65
2021/01/26 09:53:42;;;;;;;3.97;2.40;;;;;;;1.68;91.24;98291.13;5113190;28;20371;-65
2021/01/26 09:56:10;;;;;;;3.27;2.10;;;;;;;1.70;91.30;98275.41;5114249;28;20250;-65
2021/01/26 09:58:36;;;;;;;2.60;2.07;;;;;;;1.81;90.00;98281.13;5113852;28;20210;-65
2021/01/26 10:01:04;;;;;;;3.80;2.03;;;;;;;1.81;91.74;98275.91;5113676;28;20210;-65
2021/01/26 10:03:31;;;;;;;2.87;2.30;;;;;;;1.87;90.73;98276.59;5113851;28;20287;-65
2021/01/26 10:06:00;;;;;;;4.53;2.00;;;;;;;1.93;90.21;98291.16;5113833;28;20212;-64
2021/01/26 10:08:29;;;;;;;2.27;1.93;;;;;;;2.06;88.13;98288.09;5112875;28;20215;-64
2021/01/26 10:10:55;;;;;;;4.43;2.50;;;;;;;2.12;88.00;98300.94;5113548;28;20695;-65
2021/01/26 10:13:34;;;;;;;3.30;1.83;;;;;;;2.23;87.24;98295.34;5114061;28;20234;-65
2021/01/26 10:16:25;;;;;;;2.77;2.13;;;;;;;2.30;85.59;98302.06;5116639;28;20209;-64
2021/01/26 10:18:51;;;;;;;2.80;2.27;;;;;;;2.37;85.92;98294.00;5117278;28;20207;-65
2021/01/26 10:21:27;;;;;;;4.20;2.40;;;;;;;2.38;85.67;98289.66;5117011;28;20210;-65
2021/01/26 10:23:59;;;;;;;4.97;2.10;;;;;;;2.47;82.65;98290.19;5116386;28;20702;-65
2021/01/26 10:26:27;;;;;;;4.00;1.97;;;;;;;2.54;84.91;98296.88;5113567;28;20217;-64
2021/01/26 10:29:18;;;;;;;5.23;2.10;;;;;;;2.75;82.80;98301.31;5113568;28;20209;-65
2021/01/26 10:31:47;;;;;;;4.57;2.07;;;;;;;2.94;83.64;98311.97;5112631;28;20213;-65
2021/01/26 10:34:18;;;;;;;3.50;2.10;;;;;;;2.89;82.82;98309.50;5113316;28;20206;-64
2021/01/26 10:36:45;;;;;;;4.10;2.23;;;;;;;2.82;82.91;98305.41;5113184;28;20692;-66
2021/01/26 10:39:24;;;;;;;2.90;2.13;;;;;;;2.64;82.33;98316.50;5113390;28;20263;-66
2021/01/26 10:41:59;;;;;;;3.57;1.90;;;;;;;2.56;83.84;98305.50;5111758;28;20202;-66
2021/01/26 10:44:25;;;;;;;4.70;2.00;;;;;;;2.58;82.71;98314.09;5109069;28;20674;-70
2021/01/26 10:46:51;;;;;;;2.70;2.20;;;;;;;2.56;82.94;98321.16;5112353;28;20217;-69
2021/01/26 10:49:24;;;;;;;3.97;2.00;;;;;;;2.60;82.63;98322.75;5112921;28;20210;-68
2021/01/26 10:51:51;;;;;;;2.60;2.10;;;;;;;2.60;82.88;98324.50;5110997;28;20268;-68
2021/01/26 10:54:17;;;;;;;5.33;2.50;;;;;;;2.54;82.75;98330.78;5101300;28;20207;-66
2021/01/26 10:56:44;;;;;;;2.30;1.90;;;;;;;2.53;81.76;98318.66;5102470;28;20222;-66
2021/01/26 10:59:11;;;;;;;2.97;2.10;;;;;;;2.52;82.38;98324.75;5111815;28;20248;-68
2021/01/26 11:01:40;;;;;;;2.13;1.73;;;;;;;2.57;83.00;98332.44;5111582;28;20214;-66
2021/01/26 11:04:06;;;;;;;3.83;2.10;;;;;;;2.54;82.44;98330.78;5112379;28;20210;-65
2021/01/26 11:06:32;;;;;;;4.27;2.23;;;;;;;2.52;82.11;98334.34;5111040;28;20279;-67
2021/01/26 11:08:59;;;;;;;7.00;2.20;;;;;;;2.48;82.93;98333.59;5109754;28;20294;-65
2021/01/26 11:11:28;;;;;;;3.30;2.13;;;;;;;2.51;82.93;98320.44;5112623;28;20220;-66
2021/01/26 11:13:55;;;;;;;4.83;2.03;;;;;;;2.47;83.16;98326.69;5112081;28;20237;-66
2021/01/26 11:16:22;;;;;;;2.67;2.00;;;;;;;2.48;83.32;98323.19;5111175;28;20697;-70
2021/01/26 11:18:49;;;;;;;5.13;2.43;;;;;;;2.56;83.37;98336.78;5112109;28;20698;-68
2021/01/26 11:21:14;;;;;;;3.73;2.00;;;;;;;2.69;82.86;98338.06;5115680;28;20221;-67
2021/01/26 11:23:42;;;;;;;3.67;2.17;;;;;;;2.74;79.66;98335.28;5114898;28;20665;-67
2021/01/26 11:26:12;;;;;;;3.90;2.23;;;;;;;2.76;80.40;98318.69;5116187;28;20682;-69
2021/01/26 11:28:38;;;;;;;5.43;2.00;;;;;;;2.94;79.42;98338.06;5116503;28;20206;-68
2021/01/26 11:31:04;;;;;;;4.20;2.00;;;;;;;3.00;78.93;98330.84;5116205;28;20216;-69
2021/01/26 11:33:31;;;;;;;3.53;2.17;;;;;;;3.11;77.39;98335.72;5116360;28;20239;-68
2021/01/26 11:35:58;;;;;;;5.27;2.10;;;;;;;3.12;78.25;98327.81;5114477;28;20740;-70
2021/01/26 11:38:24;;;;;;;4.20;2.43;;;;;;;3.13;77.43;98347.78;5116222;28;20687;-70
2021/01/26 11:40:50;;;;;;;5.10;2.23;;;;;;;3.09;76.71;98340.13;5116343;27;20212;-69
2021/01/26 11:43:18;;;;;;;4.93;2.67;;;;;;;3.02;78.19;98346.47;5116193;28;20210;-69
2021/01/26 11:45:45;;;;;;;4.07;2.30;;;;;;;2.98;77.48;98345.72;5116285;28;20218;-70
2021/01/26 11:48:11;;;;;;;3.83;2.70;;;;;;;3.03;79.33;98354.25;5116380;27;20225;-68
2021/01/26 11:50:38;;;;;;;5.13;2.27;;;;;;;3.06;77.75;98356.75;5116365;28;20217;-70
2021/01/26 11:53:05;;;;;;;4.90;3.00;;;;;;;3.15;77.79;98352.94;5116200;28;20245;-68